Terminal Aerodrome Forecast
Issued by NWS Grand Junction, CO

Home | Current Version | Previous Version | Text Only | Print | Product List | Glossary On
Versions: 1 2 3 4 5 6 7 8 9 10 11 12 13 14
000
FTUS45 KGJT 222340
TAFGJT
TAF
KGJT 222340Z 2300/2324 29006KT P6SM SCT250
     FM230500 03004KT P6SM SCT200
     FM231100 09004KT P6SM FEW150 SCT250
     FM231800 35004KT P6SM FEW140 SCT250
     FM232100 29006KT P6SM FEW130 SCT250=

USA.gov is the U.S. government's official web portal to all federal, state and local government web resources and services.